createdAt,value
2018-09-29T00:00:46.415Z,9.00
2018-09-29T00:05:56.733Z,8.80
2018-09-29T00:11:00.205Z,8.70
2018-09-29T00:16:03.802Z,8.60
2018-09-29T00:21:15.873Z,8.50
2018-09-29T00:26:19.445Z,8.50
2018-09-29T00:31:22.969Z,8.40
2018-09-29T00:36:45.875Z,8.10
2018-09-29T00:42:00.455Z,8.00
2018-09-29T00:47:04.387Z,7.90
2018-09-29T00:52:07.981Z,8.00
2018-09-29T00:57:11.457Z,7.90
2018-09-29T01:02:14.893Z,7.70
2018-09-29T01:07:27.718Z,7.60
2018-09-29T01:12:31.309Z,7.70
2018-09-29T01:17:34.740Z,7.80
2018-09-29T01:22:38.300Z,7.90
2018-09-29T01:27:41.775Z,7.90
2018-09-29T01:32:45.403Z,7.50
2018-09-29T01:37:48.958Z,7.50
2018-09-29T01:42:52.521Z,7.50
2018-09-29T01:47:57.178Z,7.40
2018-09-29T01:53:00.797Z,7.30
2018-09-29T01:58:06.411Z,7.30
2018-09-29T02:03:13.399Z,7.10
2018-09-29T02:08:16.984Z,7.10
2018-09-29T02:13:20.658Z,7.20
2018-09-29T02:18:24.204Z,7.10
2018-09-29T02:23:27.880Z,7.00
2018-09-29T02:28:32.520Z,7.00
2018-09-29T02:33:36.718Z,6.80
2018-09-29T02:38:40.228Z,6.70
2018-09-29T02:43:43.759Z,6.70
2018-09-29T02:48:47.276Z,6.60
2018-09-29T02:53:50.793Z,6.50
2018-09-29T02:58:54.335Z,6.40
2018-09-29T03:03:57.954Z,6.20
2018-09-29T03:09:01.571Z,6.00
2018-09-29T03:14:05.214Z,6.10
2018-09-29T03:19:08.808Z,6.00
2018-09-29T03:24:12.310Z,6.00
2018-09-29T03:29:15.881Z,6.00
2018-09-29T03:34:19.465Z,5.90
2018-09-29T03:39:23.079Z,5.80
2018-09-29T03:44:26.668Z,5.70
2018-09-29T03:49:30.294Z,5.50
2018-09-29T03:54:33.919Z,5.50
2018-09-29T03:59:37.650Z,5.50
2018-09-29T04:05:02.342Z,5.50
2018-09-29T04:10:05.995Z,5.50
2018-09-29T04:15:09.497Z,5.50
2018-09-29T04:20:13.027Z,5.50
2018-09-29T04:25:16.571Z,5.60
2018-09-29T04:30:20.220Z,5.60
2018-09-29T04:35:23.707Z,5.60
2018-09-29T04:40:27.389Z,5.40
2018-09-29T04:45:30.708Z,5.20
2018-09-29T04:50:35.186Z,5.00
2018-09-29T04:55:38.477Z,5.10
2018-09-29T05:00:47.768Z,5.10
2018-09-29T05:05:51.084Z,5.00
2018-09-29T05:10:57.769Z,5.10
2018-09-29T05:21:40.598Z,5.20
2018-09-29T05:26:43.855Z,5.30
2018-09-29T05:31:47.114Z,5.40
2018-09-29T05:36:50.387Z,5.40
2018-09-29T05:41:53.767Z,5.30
2018-09-29T05:46:57.056Z,5.40
2018-09-29T05:52:00.296Z,5.40
2018-09-29T05:57:03.919Z,5.50
2018-09-29T06:02:07.235Z,5.60
2018-09-29T06:07:10.741Z,5.60
2018-09-29T06:12:14.503Z,5.60
2018-09-29T06:17:18.204Z,5.70
2018-09-29T06:22:22.089Z,5.80
2018-09-29T06:27:25.551Z,5.70
2018-09-29T06:32:28.841Z,5.90
2018-09-29T06:37:32.123Z,6.10
2018-09-29T06:42:35.601Z,6.30
2018-09-29T06:47:38.898Z,6.60
2018-09-29T06:52:42.112Z,6.90
2018-09-29T06:57:45.519Z,7.20
2018-09-29T07:02:48.895Z,7.50
2018-09-29T07:07:52.177Z,7.80
2018-09-29T07:12:55.532Z,8.10
2018-09-29T07:17:59.240Z,8.40
2018-09-29T07:23:02.612Z,8.70
2018-09-29T07:28:05.903Z,8.90
2018-09-29T07:33:09.215Z,9.30
2018-09-29T07:38:12.513Z,9.70
2018-09-29T07:43:15.929Z,10.00
2018-09-29T07:48:19.179Z,10.10
2018-09-29T07:53:22.456Z,10.60
2018-09-29T07:58:25.785Z,10.80
2018-09-29T08:03:29.075Z,11.10
2018-09-29T08:08:32.412Z,11.50
2018-09-29T08:13:36.252Z,12.00
2018-09-29T08:18:47.092Z,12.30
2018-09-29T08:23:50.420Z,12.70
2018-09-29T08:28:53.723Z,13.00
2018-09-29T08:34:00.294Z,13.30
2018-09-29T08:39:05.035Z,13.60
2018-09-29T08:44:08.576Z,14.20
2018-09-29T08:49:11.989Z,14.80
2018-09-29T08:54:15.392Z,15.10
2018-09-29T08:59:18.977Z,15.20
2018-09-29T09:04:22.464Z,15.30
2018-09-29T09:09:25.808Z,15.50
2018-09-29T09:14:30.161Z,15.80
2018-09-29T09:19:33.520Z,16.20
2018-09-29T09:24:36.947Z,16.40
2018-09-29T09:29:40.357Z,16.70
2018-09-29T09:34:43.658Z,16.80
2018-09-29T09:39:47.152Z,16.90
2018-09-29T09:44:50.460Z,17.10
2018-09-29T09:49:53.845Z,17.40
2018-09-29T09:54:57.533Z,17.50
2018-09-29T10:00:01.863Z,17.80
2018-09-29T10:05:05.563Z,17.90
2018-09-29T10:10:09.583Z,17.90
2018-09-29T10:15:14.897Z,17.90
2018-09-29T10:20:18.373Z,18.50
2018-09-29T10:25:22.614Z,19.00
2018-09-29T10:30:26.359Z,18.40
2018-09-29T10:35:29.916Z,18.80
2018-09-29T10:40:33.144Z,19.40
2018-09-29T10:45:36.967Z,19.50
2018-09-29T10:50:40.268Z,20.10
2018-09-29T10:55:43.585Z,20.10
2018-09-29T11:00:47.501Z,20.10
2018-09-29T11:05:50.884Z,20.00
2018-09-29T11:10:54.348Z,19.90
2018-09-29T11:15:57.757Z,20.40
2018-09-29T11:21:02.032Z,20.70
2018-09-29T11:26:05.190Z,20.80
2018-09-29T11:31:09.305Z,21.00
2018-09-29T11:36:12.710Z,21.20
2018-09-29T11:41:17.069Z,21.70
2018-09-29T11:46:20.365Z,21.70
2018-09-29T11:51:23.719Z,21.70
2018-09-29T11:56:27.137Z,21.90
2018-09-29T12:01:31.393Z,22.50
2018-09-29T12:06:35.300Z,22.60
2018-09-29T12:11:38.713Z,22.60
2018-09-29T12:16:42.077Z,22.90
2018-09-29T12:21:45.430Z,22.90
2018-09-29T12:26:48.716Z,23.00
2018-09-29T12:31:52.065Z,23.10
2018-09-29T12:36:55.484Z,23.10
2018-09-29T12:41:58.727Z,23.40
2018-09-29T12:47:01.976Z,22.80
2018-09-29T12:52:05.366Z,22.80
2018-09-29T12:57:08.645Z,22.70
2018-09-29T13:02:12.045Z,22.10
2018-09-29T13:07:15.541Z,22.00
2018-09-29T13:12:19.904Z,22.40
2018-09-29T13:17:23.510Z,22.70
2018-09-29T13:22:33.837Z,23.10
2018-09-29T13:27:37.776Z,23.10
2018-09-29T13:32:41.170Z,23.10
2018-09-29T13:37:44.658Z,23.20
2018-09-29T13:42:47.993Z,22.80
2018-09-29T13:47:51.319Z,22.30
2018-09-29T13:52:54.579Z,22.30
2018-09-29T13:57:57.898Z,22.30
2018-09-29T14:03:02.052Z,22.20
2018-09-29T14:08:06.112Z,22.10
2018-09-29T14:13:09.444Z,22.10
2018-09-29T14:18:13.469Z,21.90
2018-09-29T14:23:16.840Z,21.60
2018-09-29T14:28:20.197Z,21.60
2018-09-29T14:33:24.149Z,21.60
2018-09-29T14:38:28.445Z,21.70
2018-09-29T14:43:31.877Z,21.50
2018-09-29T14:48:35.328Z,21.60
2018-09-29T14:53:38.677Z,21.40
2018-09-29T14:58:43.049Z,21.30
2018-09-29T15:03:46.972Z,21.30
2018-09-29T15:08:50.617Z,21.10
2018-09-29T15:13:54.026Z,20.90
2018-09-29T15:18:57.390Z,21.10
2018-09-29T15:24:00.728Z,21.20
2018-09-29T15:29:06.260Z,21.20
2018-09-29T15:34:10.280Z,20.90
2018-09-29T15:39:14.716Z,20.80
2018-09-29T15:44:24.296Z,20.30
2018-09-29T15:49:27.714Z,19.90
2018-09-29T15:54:31.125Z,19.40
2018-09-29T15:59:34.965Z,19.10
2018-09-29T16:04:38.295Z,18.70
2018-09-29T16:09:42.401Z,18.50
2018-09-29T16:14:45.772Z,18.30
2018-09-29T16:19:49.196Z,18.10
2018-09-29T16:24:52.541Z,17.80
2018-09-29T16:29:55.876Z,17.70
2018-09-29T16:34:59.360Z,17.60
2018-09-29T16:40:02.993Z,17.40
2018-09-29T16:45:06.369Z,17.10
2018-09-29T16:50:09.664Z,16.80
2018-09-29T16:55:13.011Z,16.60
2018-09-29T17:00:16.487Z,16.40
2018-09-29T17:05:19.856Z,16.10
2018-09-29T17:10:23.326Z,15.60
2018-09-29T17:15:26.636Z,15.40
2018-09-29T17:20:29.912Z,15.20
2018-09-29T17:25:33.369Z,15.10
2018-09-29T17:30:36.984Z,14.80
2018-09-29T17:35:40.588Z,14.50
2018-09-29T17:40:44.129Z,14.30
2018-09-29T17:45:47.505Z,14.10
2018-09-29T17:50:50.908Z,13.90
2018-09-29T17:55:54.404Z,13.70
2018-09-29T18:00:57.815Z,13.50
2018-09-29T18:06:02.332Z,13.30
2018-09-29T18:27:23.255Z,12.40
2018-09-29T18:32:51.569Z,12.20
2018-09-29T18:38:14.021Z,12.20
2018-09-29T18:50:38.210Z,11.60
2018-09-29T18:55:41.685Z,11.40
2018-09-29T19:28:29.458Z,10.50
2018-09-29T19:33:33.073Z,10.40
2018-09-29T19:38:37.211Z,10.40
2018-09-29T19:43:40.716Z,10.20
2018-09-29T19:48:45.118Z,10.00
2018-09-29T19:53:52.403Z,9.90
2018-09-29T19:58:56.369Z,9.70
2018-09-29T20:03:59.934Z,9.60
2018-09-29T20:09:07.278Z,9.50
2018-09-29T20:14:10.801Z,9.30
2018-09-29T20:19:16.093Z,9.20
2018-09-29T20:24:20.366Z,9.00
2018-09-29T20:29:25.382Z,8.90
2018-09-29T20:34:29.999Z,8.80
2018-09-29T20:39:35.043Z,8.80
2018-09-29T20:50:00.610Z,8.80
2018-09-29T20:55:04.516Z,8.80
2018-09-29T21:00:07.990Z,8.80
2018-09-29T21:05:11.535Z,8.40
2018-09-29T21:10:15.036Z,8.30
2018-09-29T21:15:18.518Z,8.30
2018-09-29T21:20:22.035Z,8.20
2018-09-29T21:25:25.637Z,8.20
2018-09-29T21:30:29.103Z,8.10
2018-09-29T21:35:32.760Z,7.90
2018-09-29T21:40:36.294Z,7.80
2018-09-29T21:45:39.947Z,7.80
2018-09-29T21:50:44.099Z,7.70
2018-09-29T21:55:48.695Z,7.60
2018-09-29T22:00:52.243Z,7.40
2018-09-29T22:05:55.830Z,7.50
2018-09-29T22:10:59.310Z,7.40
2018-09-29T22:16:04.600Z,7.40
2018-09-29T22:21:08.309Z,7.40
2018-09-29T22:26:12.049Z,7.40
2018-09-29T22:31:16.149Z,7.10
2018-09-29T22:36:19.758Z,7.10
2018-09-29T22:41:23.833Z,7.20
2018-09-29T23:08:38.392Z,6.40
2018-09-29T23:13:41.892Z,6.30
2018-09-29T23:36:15.892Z,6.40
2018-09-29T23:41:19.711Z,6.30
2018-09-29T23:47:07.021Z,6.10
2018-09-29T23:52:18.634Z,6.30
2018-09-29T23:57:35.286Z,6.30
